sensor_id;sensor_type;location;lat;lon;timestamp;P1;durP1;ratioP1;P2;durP2;ratioP2
13204;SDS011;6667;52.634;9.226;2023-12-04T00:01:04;19.63;;;11.60;;
13204;SDS011;6667;52.634;9.226;2023-12-04T00:03:31;21.47;;;12.47;;
13204;SDS011;6667;52.634;9.226;2023-12-04T00:05:57;19.00;;;12.07;;
13204;SDS011;6667;52.634;9.226;2023-12-04T00:08:24;21.53;;;11.97;;
13204;SDS011;6667;52.634;9.226;2023-12-04T00:10:50;18.77;;;10.70;;
13204;SDS011;6667;52.634;9.226;2023-12-04T00:13:19;21.63;;;10.97;;
13204;SDS011;6667;52.634;9.226;2023-12-04T00:15:45;19.50;;;10.70;;
13204;SDS011;6667;52.634;9.226;2023-12-04T00:18:13;17.77;;;11.13;;
13204;SDS011;6667;52.634;9.226;2023-12-04T00:20:40;19.70;;;11.20;;
13204;SDS011;6667;52.634;9.226;2023-12-04T00:23:06;20.27;;;10.10;;
13204;SDS011;6667;52.634;9.226;2023-12-04T00:25:33;22.63;;;11.50;;
13204;SDS011;6667;52.634;9.226;2023-12-04T00:27:59;20.53;;;10.77;;
13204;SDS011;6667;52.634;9.226;2023-12-04T00:30:26;16.33;;;9.77;;
13204;SDS011;6667;52.634;9.226;2023-12-04T00:32:53;16.27;;;9.97;;
13204;SDS011;6667;52.634;9.226;2023-12-04T00:35:20;19.63;;;10.03;;
13204;SDS011;6667;52.634;9.226;2023-12-04T00:37:47;17.13;;;10.20;;
13204;SDS011;6667;52.634;9.226;2023-12-04T00:40:14;17.30;;;9.93;;
13204;SDS011;6667;52.634;9.226;2023-12-04T00:42:40;18.67;;;10.60;;
13204;SDS011;6667;52.634;9.226;2023-12-04T00:45:07;22.40;;;10.23;;
13204;SDS011;6667;52.634;9.226;2023-12-04T00:47:35;16.27;;;9.77;;
13204;SDS011;6667;52.634;9.226;2023-12-04T00:50:01;18.50;;;9.93;;
13204;SDS011;6667;52.634;9.226;2023-12-04T00:52:29;18.93;;;10.43;;
13204;SDS011;6667;52.634;9.226;2023-12-04T00:54:56;17.07;;;9.93;;
13204;SDS011;6667;52.634;9.226;2023-12-04T00:57:22;17.77;;;9.37;;
13204;SDS011;6667;52.634;9.226;2023-12-04T00:59:49;19.00;;;10.20;;
13204;SDS011;6667;52.634;9.226;2023-12-04T01:02:16;15.27;;;9.43;;
13204;SDS011;6667;52.634;9.226;2023-12-04T01:04:42;19.07;;;10.13;;
13204;SDS011;6667;52.634;9.226;2023-12-04T01:07:09;19.40;;;10.53;;
13204;SDS011;6667;52.634;9.226;2023-12-04T01:09:37;17.63;;;9.80;;
13204;SDS011;6667;52.634;9.226;2023-12-04T01:12:04;18.83;;;9.03;;
13204;SDS011;6667;52.634;9.226;2023-12-04T01:14:31;19.63;;;10.57;;
13204;SDS011;6667;52.634;9.226;2023-12-04T01:16:57;16.53;;;9.07;;
13204;SDS011;6667;52.634;9.226;2023-12-04T01:19:24;17.60;;;10.00;;
13204;SDS011;6667;52.634;9.226;2023-12-04T01:21:51;20.90;;;9.80;;
13204;SDS011;6667;52.634;9.226;2023-12-04T01:24:18;16.77;;;9.47;;
13204;SDS011;6667;52.634;9.226;2023-12-04T01:26:45;14.63;;;8.73;;
13204;SDS011;6667;52.634;9.226;2023-12-04T01:29:12;16.90;;;9.67;;
13204;SDS011;6667;52.634;9.226;2023-12-04T01:31:39;17.47;;;8.90;;
13204;SDS011;6667;52.634;9.226;2023-12-04T01:34:05;16.00;;;8.27;;
13204;SDS011;6667;52.634;9.226;2023-12-04T01:36:32;14.17;;;7.83;;
13204;SDS011;6667;52.634;9.226;2023-12-04T01:38:58;17.00;;;9.60;;
13204;SDS011;6667;52.634;9.226;2023-12-04T01:41:25;15.50;;;8.60;;
13204;SDS011;6667;52.634;9.226;2023-12-04T01:43:53;16.37;;;8.83;;
13204;SDS011;6667;52.634;9.226;2023-12-04T01:46:19;19.03;;;7.83;;
13204;SDS011;6667;52.634;9.226;2023-12-04T01:48:46;13.07;;;8.57;;
13204;SDS011;6667;52.634;9.226;2023-12-04T01:51:13;14.27;;;8.97;;
13204;SDS011;6667;52.634;9.226;2023-12-04T01:53:40;14.23;;;8.67;;
13204;SDS011;6667;52.634;9.226;2023-12-04T01:56:09;17.07;;;9.47;;
13204;SDS011;6667;52.634;9.226;2023-12-04T01:58:36;16.37;;;9.13;;
13204;SDS011;6667;52.634;9.226;2023-12-04T02:01:05;14.93;;;8.13;;
13204;SDS011;6667;52.634;9.226;2023-12-04T02:03:32;12.90;;;7.87;;
13204;SDS011;6667;52.634;9.226;2023-12-04T02:05:59;17.73;;;9.50;;
13204;SDS011;6667;52.634;9.226;2023-12-04T02:08:27;15.10;;;8.80;;
13204;SDS011;6667;52.634;9.226;2023-12-04T02:10:54;15.97;;;8.90;;
13204;SDS011;6667;52.634;9.226;2023-12-04T02:13:21;13.40;;;7.87;;
13204;SDS011;6667;52.634;9.226;2023-12-04T02:15:49;16.50;;;8.67;;
13204;SDS011;6667;52.634;9.226;2023-12-04T02:18:19;17.40;;;9.07;;
13204;SDS011;6667;52.634;9.226;2023-12-04T02:20:47;14.27;;;7.63;;
13204;SDS011;6667;52.634;9.226;2023-12-04T02:23:13;13.53;;;8.13;;
13204;SDS011;6667;52.634;9.226;2023-12-04T02:25:41;12.80;;;6.80;;
13204;SDS011;6667;52.634;9.226;2023-12-04T02:28:09;11.27;;;6.63;;
13204;SDS011;6667;52.634;9.226;2023-12-04T02:30:39;13.90;;;7.97;;
13204;SDS011;6667;52.634;9.226;2023-12-04T02:33:09;11.80;;;6.97;;
13204;SDS011;6667;52.634;9.226;2023-12-04T02:35:37;13.53;;;7.93;;
13204;SDS011;6667;52.634;9.226;2023-12-04T02:38:07;13.70;;;7.50;;
13204;SDS011;6667;52.634;9.226;2023-12-04T02:40:34;13.40;;;7.23;;
13204;SDS011;6667;52.634;9.226;2023-12-04T02:43:02;13.10;;;7.70;;
13204;SDS011;6667;52.634;9.226;2023-12-04T02:45:29;11.73;;;6.47;;
13204;SDS011;6667;52.634;9.226;2023-12-04T02:47:55;13.63;;;7.90;;
13204;SDS011;6667;52.634;9.226;2023-12-04T02:50:22;14.73;;;7.40;;
13204;SDS011;6667;52.634;9.226;2023-12-04T02:52:49;10.27;;;6.20;;
13204;SDS011;6667;52.634;9.226;2023-12-04T02:55:15;14.87;;;7.80;;
13204;SDS011;6667;52.634;9.226;2023-12-04T02:57:42;14.03;;;6.87;;
13204;SDS011;6667;52.634;9.226;2023-12-04T03:00:10;11.83;;;7.37;;
13204;SDS011;6667;52.634;9.226;2023-12-04T03:02:38;13.03;;;7.23;;
13204;SDS011;6667;52.634;9.226;2023-12-04T03:05:04;11.57;;;6.97;;
13204;SDS011;6667;52.634;9.226;2023-12-04T03:07:31;13.23;;;7.00;;
13204;SDS011;6667;52.634;9.226;2023-12-04T03:09:58;12.67;;;7.53;;
13204;SDS011;6667;52.634;9.226;2023-12-04T03:12:24;11.80;;;6.90;;
13204;SDS011;6667;52.634;9.226;2023-12-04T03:14:51;13.27;;;7.40;;
13204;SDS011;6667;52.634;9.226;2023-12-04T03:17:19;15.97;;;7.77;;
13204;SDS011;6667;52.634;9.226;2023-12-04T03:19:45;14.33;;;7.67;;
13204;SDS011;6667;52.634;9.226;2023-12-04T03:22:15;16.10;;;7.63;;
13204;SDS011;6667;52.634;9.226;2023-12-04T03:24:43;13.40;;;7.63;;
13204;SDS011;6667;52.634;9.226;2023-12-04T03:27:10;15.77;;;8.17;;
13204;SDS011;6667;52.634;9.226;2023-12-04T03:29:37;10.90;;;6.90;;
13204;SDS011;6667;52.634;9.226;2023-12-04T03:32:03;13.37;;;7.63;;
13204;SDS011;6667;52.634;9.226;2023-12-04T03:34:31;11.23;;;7.27;;
13204;SDS011;6667;52.634;9.226;2023-12-04T03:36:58;13.57;;;8.40;;
13204;SDS011;6667;52.634;9.226;2023-12-04T03:39:25;11.50;;;7.33;;
13204;SDS011;6667;52.634;9.226;2023-12-04T03:41:51;15.20;;;7.90;;
13204;SDS011;6667;52.634;9.226;2023-12-04T03:44:18;14.37;;;7.80;;
13204;SDS011;6667;52.634;9.226;2023-12-04T03:46:44;13.57;;;7.90;;
13204;SDS011;6667;52.634;9.226;2023-12-04T03:49:11;15.20;;;8.27;;
13204;SDS011;6667;52.634;9.226;2023-12-04T03:51:39;14.03;;;7.77;;
13204;SDS011;6667;52.634;9.226;2023-12-04T03:54:05;11.90;;;7.03;;
13204;SDS011;6667;52.634;9.226;2023-12-04T03:56:32;13.93;;;8.17;;
13204;SDS011;6667;52.634;9.226;2023-12-04T03:58:58;13.80;;;6.97;;
13204;SDS011;6667;52.634;9.226;2023-12-04T04:01:25;12.63;;;7.03;;
13204;SDS011;6667;52.634;9.226;2023-12-04T04:03:52;14.13;;;7.83;;
13204;SDS011;6667;52.634;9.226;2023-12-04T04:06:18;14.40;;;8.10;;
13204;SDS011;6667;52.634;9.226;2023-12-04T04:08:46;11.77;;;7.43;;
13204;SDS011;6667;52.634;9.226;2023-12-04T04:11:13;13.20;;;8.17;;
13204;SDS011;6667;52.634;9.226;2023-12-04T04:13:39;12.97;;;8.47;;
13204;SDS011;6667;52.634;9.226;2023-12-04T04:16:06;13.03;;;7.27;;
13204;SDS011;6667;52.634;9.226;2023-12-04T04:18:34;14.13;;;7.67;;
13204;SDS011;6667;52.634;9.226;2023-12-04T04:21:01;15.00;;;8.50;;
13204;SDS011;6667;52.634;9.226;2023-12-04T04:23:27;12.67;;;8.20;;
13204;SDS011;6667;52.634;9.226;2023-12-04T04:25:55;17.27;;;8.23;;
13204;SDS011;6667;52.634;9.226;2023-12-04T04:28:22;13.73;;;10.00;;
13204;SDS011;6667;52.634;9.226;2023-12-04T04:30:48;15.60;;;8.13;;
13204;SDS011;6667;52.634;9.226;2023-12-04T04:33:15;13.13;;;8.53;;
13204;SDS011;6667;52.634;9.226;2023-12-04T04:35:42;16.07;;;8.27;;
13204;SDS011;6667;52.634;9.226;2023-12-04T04:38:09;13.20;;;8.27;;
13204;SDS011;6667;52.634;9.226;2023-12-04T04:40:35;15.47;;;7.73;;
13204;SDS011;6667;52.634;9.226;2023-12-04T04:43:08;15.53;;;8.57;;
13204;SDS011;6667;52.634;9.226;2023-12-04T04:45:35;15.03;;;8.20;;
13204;SDS011;6667;52.634;9.226;2023-12-04T04:48:02;12.87;;;8.20;;
13204;SDS011;6667;52.634;9.226;2023-12-04T04:50:29;15.17;;;7.90;;
13204;SDS011;6667;52.634;9.226;2023-12-04T04:52:56;16.23;;;8.30;;
13204;SDS011;6667;52.634;9.226;2023-12-04T04:55:22;13.40;;;7.20;;
13204;SDS011;6667;52.634;9.226;2023-12-04T04:57:49;16.07;;;9.50;;
13204;SDS011;6667;52.634;9.226;2023-12-04T05:00:17;12.20;;;7.03;;
13204;SDS011;6667;52.634;9.226;2023-12-04T05:02:44;15.57;;;7.83;;
13204;SDS011;6667;52.634;9.226;2023-12-04T05:05:11;12.80;;;8.07;;
13204;SDS011;6667;52.634;9.226;2023-12-04T05:07:38;13.20;;;8.23;;
13204;SDS011;6667;52.634;9.226;2023-12-04T05:10:04;15.50;;;7.47;;
13204;SDS011;6667;52.634;9.226;2023-12-04T05:12:32;11.93;;;7.10;;
13204;SDS011;6667;52.634;9.226;2023-12-04T05:14:58;13.33;;;7.47;;
13204;SDS011;6667;52.634;9.226;2023-12-04T05:17:26;14.37;;;7.57;;
13204;SDS011;6667;52.634;9.226;2023-12-04T05:19:53;13.93;;;7.83;;
13204;SDS011;6667;52.634;9.226;2023-12-04T05:22:19;12.63;;;7.63;;
13204;SDS011;6667;52.634;9.226;2023-12-04T05:24:46;14.70;;;8.80;;
13204;SDS011;6667;52.634;9.226;2023-12-04T05:27:12;15.03;;;7.77;;
13204;SDS011;6667;52.634;9.226;2023-12-04T05:29:39;14.43;;;8.03;;
13204;SDS011;6667;52.634;9.226;2023-12-04T05:32:06;13.93;;;8.00;;
13204;SDS011;6667;52.634;9.226;2023-12-04T05:34:34;16.10;;;7.70;;
13204;SDS011;6667;52.634;9.226;2023-12-04T05:37:00;15.87;;;7.67;;
13204;SDS011;6667;52.634;9.226;2023-12-04T05:39:27;14.27;;;8.17;;
13204;SDS011;6667;52.634;9.226;2023-12-04T05:41:53;12.40;;;7.93;;
13204;SDS011;6667;52.634;9.226;2023-12-04T05:44:20;17.00;;;9.20;;
13204;SDS011;6667;52.634;9.226;2023-12-04T05:46:46;16.30;;;9.47;;
13204;SDS011;6667;52.634;9.226;2023-12-04T05:49:13;19.53;;;8.63;;
13204;SDS011;6667;52.634;9.226;2023-12-04T05:51:41;14.07;;;8.80;;
13204;SDS011;6667;52.634;9.226;2023-12-04T05:54:08;17.60;;;8.60;;
13204;SDS011;6667;52.634;9.226;2023-12-04T05:56:34;14.67;;;8.77;;
13204;SDS011;6667;52.634;9.226;2023-12-04T05:59:01;16.57;;;9.17;;
13204;SDS011;6667;52.634;9.226;2023-12-04T06:01:28;12.77;;;7.83;;
13204;SDS011;6667;52.634;9.226;2023-12-04T06:03:54;14.93;;;8.47;;
13204;SDS011;6667;52.634;9.226;2023-12-04T06:06:21;13.70;;;8.00;;
13204;SDS011;6667;52.634;9.226;2023-12-04T06:08:49;16.33;;;8.70;;
13204;SDS011;6667;52.634;9.226;2023-12-04T06:11:15;13.87;;;8.20;;
13204;SDS011;6667;52.634;9.226;2023-12-04T06:13:42;15.13;;;8.43;;
13204;SDS011;6667;52.634;9.226;2023-12-04T06:16:09;14.80;;;8.03;;
13204;SDS011;6667;52.634;9.226;2023-12-04T06:18:36;13.27;;;7.80;;
13204;SDS011;6667;52.634;9.226;2023-12-04T06:21:02;14.20;;;8.80;;
13204;SDS011;6667;52.634;9.226;2023-12-04T06:23:30;13.63;;;8.43;;
13204;SDS011;6667;52.634;9.226;2023-12-04T06:25:58;19.53;;;9.03;;
13204;SDS011;6667;52.634;9.226;2023-12-04T06:28:26;14.33;;;8.23;;
13204;SDS011;6667;52.634;9.226;2023-12-04T06:30:53;13.73;;;8.17;;
13204;SDS011;6667;52.634;9.226;2023-12-04T06:33:20;14.17;;;8.00;;
13204;SDS011;6667;52.634;9.226;2023-12-04T06:35:47;15.30;;;8.27;;
13204;SDS011;6667;52.634;9.226;2023-12-04T06:38:15;13.27;;;8.23;;
13204;SDS011;6667;52.634;9.226;2023-12-04T06:40:45;13.33;;;7.97;;
13204;SDS011;6667;52.634;9.226;2023-12-04T06:43:13;13.80;;;8.03;;
13204;SDS011;6667;52.634;9.226;2023-12-04T06:45:41;17.90;;;8.63;;
13204;SDS011;6667;52.634;9.226;2023-12-04T06:48:08;14.17;;;8.03;;
13204;SDS011;6667;52.634;9.226;2023-12-04T06:50:36;13.67;;;8.27;;
13204;SDS011;6667;52.634;9.226;2023-12-04T06:53:03;18.27;;;9.60;;
13204;SDS011;6667;52.634;9.226;2023-12-04T06:55:30;15.67;;;9.00;;
13204;SDS011;6667;52.634;9.226;2023-12-04T06:57:57;14.57;;;8.40;;
13204;SDS011;6667;52.634;9.226;2023-12-04T07:00:25;15.63;;;8.03;;
13204;SDS011;6667;52.634;9.226;2023-12-04T07:02:52;15.30;;;8.23;;
13204;SDS011;6667;52.634;9.226;2023-12-04T07:05:19;15.60;;;8.87;;
13204;SDS011;6667;52.634;9.226;2023-12-04T07:07:46;14.23;;;7.53;;
13204;SDS011;6667;52.634;9.226;2023-12-04T07:10:13;16.70;;;8.10;;
13204;SDS011;6667;52.634;9.226;2023-12-04T07:12:39;15.53;;;8.50;;
13204;SDS011;6667;52.634;9.226;2023-12-04T07:15:07;15.67;;;7.67;;
13204;SDS011;6667;52.634;9.226;2023-12-04T07:17:35;12.40;;;7.40;;
13204;SDS011;6667;52.634;9.226;2023-12-04T07:20:03;14.70;;;8.27;;
13204;SDS011;6667;52.634;9.226;2023-12-04T07:22:31;12.93;;;7.70;;
13204;SDS011;6667;52.634;9.226;2023-12-04T07:24:58;12.77;;;7.70;;
13204;SDS011;6667;52.634;9.226;2023-12-04T07:27:25;14.70;;;7.50;;
13204;SDS011;6667;52.634;9.226;2023-12-04T07:29:52;12.10;;;8.07;;
13204;SDS011;6667;52.634;9.226;2023-12-04T07:32:18;12.90;;;7.23;;
13204;SDS011;6667;52.634;9.226;2023-12-04T07:34:46;13.43;;;7.80;;
13204;SDS011;6667;52.634;9.226;2023-12-04T07:37:13;11.63;;;7.07;;
13204;SDS011;6667;52.634;9.226;2023-12-04T07:39:40;13.17;;;8.67;;
13204;SDS011;6667;52.634;9.226;2023-12-04T07:42:08;15.27;;;9.03;;
13204;SDS011;6667;52.634;9.226;2023-12-04T07:44:35;13.43;;;7.93;;
13204;SDS011;6667;52.634;9.226;2023-12-04T07:47:01;13.57;;;7.17;;
13204;SDS011;6667;52.634;9.226;2023-12-04T07:49:29;11.60;;;7.10;;
13204;SDS011;6667;52.634;9.226;2023-12-04T07:51:57;11.60;;;7.80;;
13204;SDS011;6667;52.634;9.226;2023-12-04T07:54:23;13.47;;;7.17;;
13204;SDS011;6667;52.634;9.226;2023-12-04T07:56:51;12.43;;;7.47;;
13204;SDS011;6667;52.634;9.226;2023-12-04T07:59:18;12.47;;;7.17;;
13204;SDS011;6667;52.634;9.226;2023-12-04T08:01:45;16.03;;;8.17;;
13204;SDS011;6667;52.634;9.226;2023-12-04T08:04:12;15.10;;;8.13;;
13204;SDS011;6667;52.634;9.226;2023-12-04T08:06:39;13.27;;;7.37;;
13204;SDS011;6667;52.634;9.226;2023-12-04T08:09:07;12.80;;;7.07;;
13204;SDS011;6667;52.634;9.226;2023-12-04T08:11:35;12.47;;;7.07;;
13204;SDS011;6667;52.634;9.226;2023-12-04T08:14:02;12.20;;;7.60;;
13204;SDS011;6667;52.634;9.226;2023-12-04T08:16:29;11.33;;;6.93;;
13204;SDS011;6667;52.634;9.226;2023-12-04T08:18:55;11.60;;;7.50;;
13204;SDS011;6667;52.634;9.226;2023-12-04T08:21:22;10.37;;;7.30;;
13204;SDS011;6667;52.634;9.226;2023-12-04T08:23:49;10.03;;;6.60;;
13204;SDS011;6667;52.634;9.226;2023-12-04T08:26:21;13.07;;;7.10;;
13204;SDS011;6667;52.634;9.226;2023-12-04T08:28:49;12.33;;;7.17;;
13204;SDS011;6667;52.634;9.226;2023-12-04T08:31:16;10.63;;;7.73;;
13204;SDS011;6667;52.634;9.226;2023-12-04T08:33:42;12.33;;;7.77;;
13204;SDS011;6667;52.634;9.226;2023-12-04T08:36:10;14.10;;;7.63;;
13204;SDS011;6667;52.634;9.226;2023-12-04T08:38:37;15.10;;;8.10;;
13204;SDS011;6667;52.634;9.226;2023-12-04T08:41:04;12.00;;;7.30;;
13204;SDS011;6667;52.634;9.226;2023-12-04T08:43:33;11.90;;;6.73;;
13204;SDS011;6667;52.634;9.226;2023-12-04T08:45:59;10.77;;;6.83;;
13204;SDS011;6667;52.634;9.226;2023-12-04T08:48:26;12.17;;;7.63;;
13204;SDS011;6667;52.634;9.226;2023-12-04T08:50:53;13.17;;;8.03;;
13204;SDS011;6667;52.634;9.226;2023-12-04T08:53:20;12.47;;;8.17;;
13204;SDS011;6667;52.634;9.226;2023-12-04T08:55:47;12.87;;;7.67;;
13204;SDS011;6667;52.634;9.226;2023-12-04T08:58:13;11.07;;;7.23;;
13204;SDS011;6667;52.634;9.226;2023-12-04T09:00:41;13.50;;;7.83;;
13204;SDS011;6667;52.634;9.226;2023-12-04T09:03:08;12.73;;;7.73;;
13204;SDS011;6667;52.634;9.226;2023-12-04T09:05:36;11.50;;;7.23;;
13204;SDS011;6667;52.634;9.226;2023-12-04T09:08:03;15.13;;;7.83;;
13204;SDS011;6667;52.634;9.226;2023-12-04T09:10:30;11.87;;;7.13;;
13204;SDS011;6667;52.634;9.226;2023-12-04T09:12:57;12.77;;;7.57;;
13204;SDS011;6667;52.634;9.226;2023-12-04T09:15:23;10.97;;;6.80;;
13204;SDS011;6667;52.634;9.226;2023-12-04T09:17:51;10.37;;;6.07;;
13204;SDS011;6667;52.634;9.226;2023-12-04T09:20:18;11.93;;;7.37;;
13204;SDS011;6667;52.634;9.226;2023-12-04T09:22:45;12.67;;;7.07;;
13204;SDS011;6667;52.634;9.226;2023-12-04T09:25:12;11.73;;;7.00;;
13204;SDS011;6667;52.634;9.226;2023-12-04T09:27:39;15.53;;;7.93;;
13204;SDS011;6667;52.634;9.226;2023-12-04T09:30:06;11.47;;;7.73;;
13204;SDS011;6667;52.634;9.226;2023-12-04T09:32:33;11.23;;;6.83;;
13204;SDS011;6667;52.634;9.226;2023-12-04T09:35:01;13.23;;;7.73;;
13204;SDS011;6667;52.634;9.226;2023-12-04T09:37:28;10.00;;;7.00;;
13204;SDS011;6667;52.634;9.226;2023-12-04T09:39:55;11.63;;;7.03;;
13204;SDS011;6667;52.634;9.226;2023-12-04T09:42:22;13.33;;;7.30;;
13204;SDS011;6667;52.634;9.226;2023-12-04T09:44:49;11.47;;;6.60;;
13204;SDS011;6667;52.634;9.226;2023-12-04T09:47:19;9.23;;;6.27;;
13204;SDS011;6667;52.634;9.226;2023-12-04T09:49:46;11.13;;;6.67;;
13204;SDS011;6667;52.634;9.226;2023-12-04T09:52:15;15.00;;;7.57;;
13204;SDS011;6667;52.634;9.226;2023-12-04T09:54:43;11.67;;;6.77;;
13204;SDS011;6667;52.634;9.226;2023-12-04T09:57:10;9.93;;;6.33;;
13204;SDS011;6667;52.634;9.226;2023-12-04T09:59:38;12.47;;;7.00;;
13204;SDS011;6667;52.634;9.226;2023-12-04T10:02:05;13.70;;;7.03;;
13204;SDS011;6667;52.634;9.226;2023-12-04T10:04:32;12.90;;;7.33;;
13204;SDS011;6667;52.634;9.226;2023-12-04T10:06:59;10.73;;;6.57;;
13204;SDS011;6667;52.634;9.226;2023-12-04T10:09:27;10.80;;;7.40;;
13204;SDS011;6667;52.634;9.226;2023-12-04T10:11:55;11.07;;;7.03;;
13204;SDS011;6667;52.634;9.226;2023-12-04T10:14:22;16.50;;;9.07;;
13204;SDS011;6667;52.634;9.226;2023-12-04T10:16:50;10.70;;;6.97;;
13204;SDS011;6667;52.634;9.226;2023-12-04T10:19:18;11.10;;;6.90;;
13204;SDS011;6667;52.634;9.226;2023-12-04T10:21:48;11.13;;;7.40;;
13204;SDS011;6667;52.634;9.226;2023-12-04T10:24:31;10.80;;;7.10;;
13204;SDS011;6667;52.634;9.226;2023-12-04T10:27:00;13.17;;;7.47;;
13204;SDS011;6667;52.634;9.226;2023-12-04T10:29:27;11.23;;;7.60;;
13204;SDS011;6667;52.634;9.226;2023-12-04T10:31:57;10.67;;;6.73;;
13204;SDS011;6667;52.634;9.226;2023-12-04T10:34:25;11.07;;;6.87;;
13204;SDS011;6667;52.634;9.226;2023-12-04T10:36:52;10.63;;;7.10;;
13204;SDS011;6667;52.634;9.226;2023-12-04T10:39:20;10.47;;;6.73;;
13204;SDS011;6667;52.634;9.226;2023-12-04T10:41:50;11.00;;;7.23;;
13204;SDS011;6667;52.634;9.226;2023-12-04T10:44:25;10.97;;;6.70;;
13204;SDS011;6667;52.634;9.226;2023-12-04T10:46:53;10.33;;;6.93;;
13204;SDS011;6667;52.634;9.226;2023-12-04T10:49:24;10.90;;;6.83;;
13204;SDS011;6667;52.634;9.226;2023-12-04T10:51:53;9.93;;;5.83;;
13204;SDS011;6667;52.634;9.226;2023-12-04T10:54:22;11.23;;;7.43;;
13204;SDS011;6667;52.634;9.226;2023-12-04T10:56:51;12.03;;;6.87;;
13204;SDS011;6667;52.634;9.226;2023-12-04T10:59:21;10.43;;;6.23;;
13204;SDS011;6667;52.634;9.226;2023-12-04T11:01:53;12.50;;;7.17;;
13204;SDS011;6667;52.634;9.226;2023-12-04T11:04:23;11.57;;;6.73;;
13204;SDS011;6667;52.634;9.226;2023-12-04T11:06:53;11.97;;;6.93;;
13204;SDS011;6667;52.634;9.226;2023-12-04T11:09:20;12.93;;;7.93;;
13204;SDS011;6667;52.634;9.226;2023-12-04T11:11:53;11.20;;;7.13;;
13204;SDS011;6667;52.634;9.226;2023-12-04T11:14:27;13.53;;;7.80;;
13204;SDS011;6667;52.634;9.226;2023-12-04T11:17:02;9.97;;;6.33;;
13204;SDS011;6667;52.634;9.226;2023-12-04T11:19:35;10.63;;;6.83;;
13204;SDS011;6667;52.634;9.226;2023-12-04T11:22:09;12.40;;;7.00;;
13204;SDS011;6667;52.634;9.226;2023-12-04T11:24:37;13.40;;;7.97;;
13204;SDS011;6667;52.634;9.226;2023-12-04T11:27:07;14.73;;;7.63;;
13204;SDS011;6667;52.634;9.226;2023-12-04T11:29:35;12.10;;;7.50;;
13204;SDS011;6667;52.634;9.226;2023-12-04T11:32:04;11.13;;;6.40;;
13204;SDS011;6667;52.634;9.226;2023-12-04T11:34:32;12.17;;;7.97;;
13204;SDS011;6667;52.634;9.226;2023-12-04T11:37:01;12.83;;;7.33;;
13204;SDS011;6667;52.634;9.226;2023-12-04T11:39:27;9.60;;;6.40;;
13204;SDS011;6667;52.634;9.226;2023-12-04T11:41:55;10.63;;;6.80;;
13204;SDS011;6667;52.634;9.226;2023-12-04T11:44:26;11.00;;;6.50;;
13204;SDS011;6667;52.634;9.226;2023-12-04T11:46:54;10.77;;;6.53;;
13204;SDS011;6667;52.634;9.226;2023-12-04T11:49:29;9.57;;;6.40;;
13204;SDS011;6667;52.634;9.226;2023-12-04T11:51:56;12.30;;;7.23;;
13204;SDS011;6667;52.634;9.226;2023-12-04T11:54:24;10.43;;;6.47;;
13204;SDS011;6667;52.634;9.226;2023-12-04T11:56:57;11.03;;;6.63;;
13204;SDS011;6667;52.634;9.226;2023-12-04T11:59:26;12.47;;;6.87;;
13204;SDS011;6667;52.634;9.226;2023-12-04T12:01:54;11.30;;;6.43;;
13204;SDS011;6667;52.634;9.226;2023-12-04T12:04:22;11.10;;;7.07;;
13204;SDS011;6667;52.634;9.226;2023-12-04T12:06:49;10.73;;;6.77;;
13204;SDS011;6667;52.634;9.226;2023-12-04T12:09:16;10.90;;;6.37;;
13204;SDS011;6667;52.634;9.226;2023-12-04T12:11:44;9.47;;;6.00;;
13204;SDS011;6667;52.634;9.226;2023-12-04T12:14:11;10.70;;;7.10;;
13204;SDS011;6667;52.634;9.226;2023-12-04T12:16:39;8.93;;;5.93;;
13204;SDS011;6667;52.634;9.226;2023-12-04T12:19:06;13.10;;;7.23;;
13204;SDS011;6667;52.634;9.226;2023-12-04T12:21:33;10.80;;;6.17;;
13204;SDS011;6667;52.634;9.226;2023-12-04T12:24:00;10.33;;;6.63;;
13204;SDS011;6667;52.634;9.226;2023-12-04T12:26:27;12.17;;;7.57;;
13204;SDS011;6667;52.634;9.226;2023-12-04T12:28:54;11.47;;;7.10;;
13204;SDS011;6667;52.634;9.226;2023-12-04T12:31:21;8.27;;;5.93;;
13204;SDS011;6667;52.634;9.226;2023-12-04T12:33:50;8.87;;;6.20;;
13204;SDS011;6667;52.634;9.226;2023-12-04T12:36:17;13.20;;;7.40;;
13204;SDS011;6667;52.634;9.226;2023-12-04T12:38:44;10.80;;;6.70;;
13204;SDS011;6667;52.634;9.226;2023-12-04T12:41:14;12.63;;;6.77;;
13204;SDS011;6667;52.634;9.226;2023-12-04T12:43:41;8.67;;;5.80;;
13204;SDS011;6667;52.634;9.226;2023-12-04T12:46:08;9.50;;;6.10;;
13204;SDS011;6667;52.634;9.226;2023-12-04T12:48:36;9.47;;;6.13;;
13204;SDS011;6667;52.634;9.226;2023-12-04T12:51:04;10.40;;;6.57;;
13204;SDS011;6667;52.634;9.226;2023-12-04T12:53:37;10.87;;;6.57;;
13204;SDS011;6667;52.634;9.226;2023-12-04T12:56:04;10.47;;;6.40;;
13204;SDS011;6667;52.634;9.226;2023-12-04T12:58:33;9.53;;;6.10;;
13204;SDS011;6667;52.634;9.226;2023-12-04T13:01:00;8.40;;;6.23;;
13204;SDS011;6667;52.634;9.226;2023-12-04T13:03:27;9.17;;;6.23;;
13204;SDS011;6667;52.634;9.226;2023-12-04T13:05:56;11.07;;;6.10;;
13204;SDS011;6667;52.634;9.226;2023-12-04T13:08:24;8.37;;;5.43;;
13204;SDS011;6667;52.634;9.226;2023-12-04T13:10:51;10.00;;;6.30;;
13204;SDS011;6667;52.634;9.226;2023-12-04T13:13:18;9.30;;;6.30;;
13204;SDS011;6667;52.634;9.226;2023-12-04T13:15:44;8.17;;;5.40;;
13204;SDS011;6667;52.634;9.226;2023-12-04T13:18:11;9.87;;;5.97;;
13204;SDS011;6667;52.634;9.226;2023-12-04T13:20:38;9.27;;;5.93;;
13204;SDS011;6667;52.634;9.226;2023-12-04T13:23:04;9.50;;;5.93;;
13204;SDS011;6667;52.634;9.226;2023-12-04T13:25:32;8.03;;;5.60;;
13204;SDS011;6667;52.634;9.226;2023-12-04T13:27:59;9.17;;;6.10;;
13204;SDS011;6667;52.634;9.226;2023-12-04T13:32:54;12.80;;;7.47;;
13204;SDS011;6667;52.634;9.226;2023-12-04T13:35:21;12.87;;;6.70;;
13204;SDS011;6667;52.634;9.226;2023-12-04T13:37:47;9.93;;;5.80;;
13204;SDS011;6667;52.634;9.226;2023-12-04T13:40:20;9.57;;;5.87;;
13204;SDS011;6667;52.634;9.226;2023-12-04T13:42:52;13.33;;;6.13;;
13204;SDS011;6667;52.634;9.226;2023-12-04T13:45:36;10.87;;;6.77;;
13204;SDS011;6667;52.634;9.226;2023-12-04T13:48:03;8.50;;;5.43;;
13204;SDS011;6667;52.634;9.226;2023-12-04T13:50:30;8.10;;;6.07;;
13204;SDS011;6667;52.634;9.226;2023-12-04T13:52:56;8.13;;;5.73;;
13204;SDS011;6667;52.634;9.226;2023-12-04T13:55:23;11.23;;;6.17;;
13204;SDS011;6667;52.634;9.226;2023-12-04T13:58:07;10.60;;;6.30;;
13204;SDS011;6667;52.634;9.226;2023-12-04T14:00:51;9.23;;;6.50;;
13204;SDS011;6667;52.634;9.226;2023-12-04T14:03:18;9.07;;;6.03;;
13204;SDS011;6667;52.634;9.226;2023-12-04T14:05:45;9.03;;;5.90;;
13204;SDS011;6667;52.634;9.226;2023-12-04T14:08:11;9.87;;;6.13;;
13204;SDS011;6667;52.634;9.226;2023-12-04T14:10:37;9.57;;;6.10;;
13204;SDS011;6667;52.634;9.226;2023-12-04T14:13:03;8.83;;;5.70;;
13204;SDS011;6667;52.634;9.226;2023-12-04T14:15:31;9.77;;;5.97;;
13204;SDS011;6667;52.634;9.226;2023-12-04T14:17:58;14.23;;;7.03;;
13204;SDS011;6667;52.634;9.226;2023-12-04T14:20:25;8.77;;;5.83;;
13204;SDS011;6667;52.634;9.226;2023-12-04T14:22:51;9.30;;;6.37;;
13204;SDS011;6667;52.634;9.226;2023-12-04T14:25:18;9.90;;;6.10;;
13204;SDS011;6667;52.634;9.226;2023-12-04T14:27:45;16.83;;;9.23;;
13204;SDS011;6667;52.634;9.226;2023-12-04T14:30:11;17.13;;;9.40;;
13204;SDS011;6667;52.634;9.226;2023-12-04T14:32:40;10.17;;;5.73;;
13204;SDS011;6667;52.634;9.226;2023-12-04T14:35:07;9.17;;;6.13;;
13204;SDS011;6667;52.634;9.226;2023-12-04T14:37:34;10.13;;;6.97;;
13204;SDS011;6667;52.634;9.226;2023-12-04T14:40:01;10.80;;;7.20;;
13204;SDS011;6667;52.634;9.226;2023-12-04T14:42:29;8.97;;;5.77;;
13204;SDS011;6667;52.634;9.226;2023-12-04T14:44:56;8.03;;;5.60;;
13204;SDS011;6667;52.634;9.226;2023-12-04T14:47:23;9.23;;;5.90;;
13204;SDS011;6667;52.634;9.226;2023-12-04T14:49:50;11.07;;;6.50;;
13204;SDS011;6667;52.634;9.226;2023-12-04T14:52:20;10.53;;;6.37;;